Time;durP1;ratioP1;P1;durP2;ratioP2;P2;SDS_P1;SDS_P2;PMS_P1;PMS_P2;Temp;Humidity;BMP_temperature;BMP_pressure;BME280_temperature;BME280_humidity;BME280_pressure;Samples;Min_cycle;Max_cycle;Signal;HPM_P1;HPM_P2
2024/03/01 00:01:20;;;;;;;0.50;0.50;;;;;;;3.96;92.08;99810.88;4969150;28;20051;-76
2024/03/01 00:03:45;;;;;;;0.40;0.40;;;;;;;4.08;91.65;99828.94;4986193;28;20090;-75
2024/03/01 00:06:10;;;;;;;0.98;0.98;;;;;;;4.09;90.65;99822.94;4968442;28;20070;-75
2024/03/01 00:08:36;;;;;;;0.75;0.75;;;;;;;4.15;90.11;99840.16;4986083;28;20038;-76
2024/03/01 00:11:01;;;;;;;0.50;0.50;;;;;;;4.03;90.94;99829.75;4986029;28;20023;-77
2024/03/01 00:13:27;;;;;;;0.65;0.65;;;;;;;4.01;91.00;99834.03;4986463;28;20027;-76
2024/03/01 00:15:52;;;;;;;2.50;2.30;;;;;;;3.78;92.30;99825.25;4985981;28;20033;-74
2024/03/01 00:18:17;;;;;;;0.60;0.60;;;;;;;3.89;91.37;99830.47;4968612;28;20090;-74
2024/03/01 00:20:43;;;;;;;0.50;0.50;;;;;;;3.81;91.84;99822.72;4968430;28;20033;-73
2024/03/01 00:23:08;;;;;;;2.15;2.05;;;;;;;3.96;90.97;99827.13;4986124;28;20022;-74
2024/03/01 00:25:33;;;;;;;6.05;3.95;;;;;;;4.02;89.64;99822.88;4985892;28;20023;-74
2024/03/01 00:27:59;;;;;;;1.42;1.40;;;;;;;3.71;91.99;99834.59;4968414;28;20081;-73
2024/03/01 00:30:24;;;;;;;0.40;0.40;;;;;;;3.73;92.47;99826.91;5000809;28;20023;-72
2024/03/01 00:32:49;;;;;;;0.45;0.45;;;;;;;3.78;91.76;99814.09;4985879;28;20105;-71
2024/03/01 00:35:16;;;;;;;0.40;0.40;;;;;;;3.90;90.83;99814.22;4986359;28;20045;-70
2024/03/01 00:37:41;;;;;;;1.67;1.58;;;;;;;3.91;90.33;99828.81;5004874;28;20026;-69
2024/03/01 00:40:07;;;;;;;2.60;2.42;;;;;;;4.01;89.94;99814.31;4989731;28;20027;-69
2024/03/01 00:42:32;;;;;;;0.50;0.50;;;;;;;3.96;89.28;99821.97;4972335;28;20030;-69
2024/03/01 00:44:57;;;;;;;0.50;0.50;;;;;;;3.89;89.35;99824.47;5004667;28;20033;-69
2024/03/01 00:47:23;;;;;;;2.25;2.15;;;;;;;3.88;89.89;99812.50;4989679;28;20030;-69
2024/03/01 00:49:50;;;;;;;2.45;2.35;;;;;;;3.84;89.62;99825.31;4989270;28;20042;-68
2024/03/01 00:52:15;;;;;;;0.73;0.73;;;;;;;3.68;90.08;99823.41;4989586;28;20027;-70
2024/03/01 00:54:41;;;;;;;0.90;0.90;;;;;;;3.56;90.56;99819.88;5004457;28;20073;-70
2024/03/01 00:57:06;;;;;;;0.40;0.40;;;;;;;3.75;89.16;99817.50;4989411;28;20086;-72
2024/03/01 00:59:31;;;;;;;1.60;1.50;;;;;;;3.72;89.04;99802.91;4971825;28;20184;-71
2024/03/01 01:01:57;;;;;;;8.98;3.53;;;;;;;3.68;88.42;99803.75;4989283;28;20022;-71
2024/03/01 01:04:22;;;;;;;1.77;1.67;;;;;;;3.43;89.45;99793.22;4989147;28;20019;-71
2024/03/01 01:06:47;;;;;;;0.50;0.50;;;;;;;3.53;88.90;99789.03;4989084;28;20107;-70
2024/03/01 01:09:13;;;;;;;0.50;0.50;;;;;;;3.49;88.15;99789.00;4989187;28;20035;-70
2024/03/01 01:11:38;;;;;;;0.57;0.57;;;;;;;3.25;89.14;99781.03;4989163;28;20030;-71
2024/03/01 01:14:03;;;;;;;0.90;0.90;;;;;;;3.40;88.31;99793.19;4971875;28;20121;-71
2024/03/01 01:16:29;;;;;;;0.50;0.50;;;;;;;3.36;88.18;99773.47;4989231;28;20054;-70
2024/03/01 01:18:55;;;;;;;0.50;0.50;;;;;;;3.17;88.87;99774.97;4987530;28;20019;-70
2024/03/01 01:21:21;;;;;;;0.50;0.50;;;;;;;3.25;88.88;99785.31;4988892;28;20049;-70
2024/03/01 01:23:47;;;;;;;0.60;0.60;;;;;;;3.26;88.48;99784.47;4989078;28;20031;-70
2024/03/01 01:26:12;;;;;;;4.20;3.13;;;;;;;3.24;88.14;99770.75;4988925;28;20046;-70
2024/03/01 01:28:38;;;;;;;2.63;2.50;;;;;;;2.94;89.59;99778.97;4988842;28;20023;-71
2024/03/01 01:31:03;;;;;;;0.68;0.68;;;;;;;3.07;89.44;99781.69;4988711;28;20037;-71
2024/03/01 01:33:28;;;;;;;0.40;0.40;;;;;;;3.10;88.84;99774.88;4988600;28;20018;-71
2024/03/01 01:35:54;;;;;;;1.17;1.17;;;;;;;3.07;88.78;99769.72;4988612;28;20479;-70
2024/03/01 01:38:19;;;;;;;0.50;0.50;;;;;;;3.29;87.06;99751.16;4988752;28;20014;-70
2024/03/01 01:40:45;;;;;;;1.27;1.27;;;;;;;3.14;87.47;99780.06;4988663;28;20030;-71
2024/03/01 01:43:10;;;;;;;1.33;1.27;;;;;;;2.95;88.72;99760.19;5003789;28;20033;-71
2024/03/01 01:45:36;;;;;;;0.50;0.50;;;;;;;3.26;86.75;99769.09;5003685;28;20050;-70
2024/03/01 01:48:02;;;;;;;2.67;2.58;;;;;;;3.09;87.32;99765.47;4988235;28;20027;-70
2024/03/01 01:50:29;;;;;;;0.50;0.50;;;;;;;3.22;86.73;99763.91;4988090;28;20102;-70
2024/03/01 01:52:54;;;;;;;0.70;0.70;;;;;;;3.12;87.65;99774.03;4987245;28;20019;-70
2024/03/01 01:55:20;;;;;;;0.50;0.50;;;;;;;3.08;88.03;99753.47;4988691;28;20085;-70
2024/03/01 01:57:48;;;;;;;3.13;2.85;;;;;;;3.08;87.14;99752.63;4988538;28;20053;-69
2024/03/01 02:00:13;;;;;;;6.60;5.55;;;;;;;3.12;86.80;99751.81;4988443;28;20027;-68
2024/03/01 02:02:40;;;;;;;13.82;3.55;;;;;;;2.89;87.73;99752.41;4988875;28;20466;-70
2024/03/01 02:05:06;;;;;;;12.48;4.80;;;;;;;2.89;88.71;99759.25;4990216;28;20297;-71
2024/03/01 02:07:32;;;;;;;3.67;1.90;;;;;;;2.98;87.65;99746.53;4991357;28;20058;-70
2024/03/01 02:09:58;;;;;;;4.40;2.72;;;;;;;2.93;87.64;99746.47;4989899;28;20034;-70
2024/03/01 02:12:23;;;;;;;9.90;5.22;;;;;;;2.90;88.40;99743.88;4971763;28;20069;-70
2024/03/01 02:14:49;;;;;;;4.97;2.67;;;;;;;3.17;86.48;99737.34;4970898;28;20027;-71
2024/03/01 02:17:14;;;;;;;4.97;3.80;;;;;;;3.00;86.76;99741.41;4988147;28;20023;-70
2024/03/01 02:19:40;;;;;;;16.58;4.93;;;;;;;2.95;86.52;99718.28;4970357;28;20026;-70
2024/03/01 02:22:09;;;;;;;2.67;1.83;;;;;;;2.99;86.58;99740.56;4986561;28;20072;-70
2024/03/01 02:24:34;;;;;;;5.35;4.90;;;;;;;2.81;87.29;99731.78;4988164;28;20050;-70
2024/03/01 02:27:00;;;;;;;13.20;5.10;;;;;;;2.84;87.08;99721.56;5002990;28;20030;-69
2024/03/01 02:29:26;;;;;;;6.03;4.35;;;;;;;2.84;87.08;99713.88;4970380;28;20015;-69
2024/03/01 02:31:52;;;;;;;5.43;4.97;;;;;;;2.68;87.86;99719.69;4987602;28;20022;-69
2024/03/01 02:34:17;;;;;;;5.13;3.80;;;;;;;2.60;87.65;99722.97;4987724;28;20414;-70
2024/03/01 02:36:42;;;;;;;11.52;4.55;;;;;;;2.75;86.62;99715.50;4987765;28;20031;-70
2024/03/01 02:39:16;;;;;;;5.03;3.88;;;;;;;2.65;87.79;99730.72;4987507;28;20026;-69
2024/03/01 02:41:43;;;;;;;3.75;3.55;;;;;;;2.50;87.31;99702.34;4987533;28;20018;-70
2024/03/01 02:44:08;;;;;;;11.65;2.28;;;;;;;2.54;87.47;99719.50;4987459;28;20084;-70
2024/03/01 02:46:33;;;;;;;13.57;4.07;;;;;;;2.44;88.13;99721.06;4987240;28;20099;-70
2024/03/01 02:48:59;;;;;;;13.82;4.20;;;;;;;2.26;88.91;99706.28;4987137;28;20023;-70
2024/03/01 02:51:24;;;;;;;3.13;2.83;;;;;;;2.42;88.13;99713.38;4987328;28;20026;-70
2024/03/01 02:53:50;;;;;;;5.05;4.60;;;;;;;2.30;88.68;99710.63;4987381;28;20026;-70
2024/03/01 02:56:15;;;;;;;5.85;3.72;;;;;;;2.35;88.35;99698.72;4970082;28;20495;-70
2024/03/01 02:58:40;;;;;;;3.10;2.90;;;;;;;2.36;87.96;99697.91;4986780;28;20022;-70
2024/03/01 03:01:05;;;;;;;13.68;7.55;;;;;;;2.19;89.18;99701.09;4969654;28;20033;-71
2024/03/01 03:03:31;;;;;;;4.70;4.05;;;;;;;2.23;89.42;99695.19;4987276;28;20050;-69
2024/03/01 03:05:56;;;;;;;5.88;3.75;;;;;;;2.20;89.33;99697.69;4986795;28;20070;-71
2024/03/01 03:08:22;;;;;;;3.97;3.63;;;;;;;2.05;90.48;99692.34;4987291;28;20089;-71
2024/03/01 03:10:47;;;;;;;2.58;1.73;;;;;;;2.19;89.53;99685.72;4969702;28;20105;-71
2024/03/01 03:13:13;;;;;;;4.97;4.47;;;;;;;2.12;90.36;99686.47;4985843;28;20022;-71
2024/03/01 03:15:38;;;;;;;2.05;1.83;;;;;;;2.07;90.22;99698.34;4986991;28;20077;-71
2024/03/01 03:18:04;;;;;;;5.93;4.00;;;;;;;2.04;90.99;99691.50;4986976;28;20045;-71
2024/03/01 03:20:35;;;;;;;4.88;1.90;;;;;;;2.13;90.83;99688.19;4986687;28;20023;-71
2024/03/01 03:23:02;;;;;;;6.38;3.83;;;;;;;2.10;90.44;99694.13;4986932;28;20388;-72
2024/03/01 03:25:28;;;;;;;5.60;4.15;;;;;;;2.06;90.95;99683.84;4986991;28;20034;-72
2024/03/01 03:27:53;;;;;;;4.90;3.05;;;;;;;2.16;91.00;99698.47;5001661;28;20037;-70
2024/03/01 03:30:19;;;;;;;5.95;4.20;;;;;;;2.09;91.07;99681.31;4986657;28;20027;-71
2024/03/01 03:32:44;;;;;;;5.22;4.68;;;;;;;2.08;91.24;99693.25;4985408;28;20050;-71
2024/03/01 03:35:10;;;;;;;9.57;5.45;;;;;;;2.14;91.15;99697.59;4986570;28;20058;-70
2024/03/01 03:37:35;;;;;;;4.18;2.05;;;;;;;2.22;90.63;99696.00;4986726;28;20031;-70
2024/03/01 03:40:04;;;;;;;3.78;2.58;;;;;;;2.20;91.16;99696.84;4986482;28;20488;-70
2024/03/01 03:42:30;;;;;;;5.15;4.75;;;;;;;2.26;91.13;99701.16;4968921;28;20050;-73
2024/03/01 03:44:55;;;;;;;3.50;3.22;;;;;;;2.19;91.52;99693.41;4986481;28;20027;-71
2024/03/01 03:47:20;;;;;;;5.78;3.45;;;;;;;2.27;91.14;99687.53;4986379;28;20023;-70
2024/03/01 03:49:47;;;;;;;2.47;2.38;;;;;;;2.42;90.72;99707.38;4986126;28;20031;-70
2024/03/01 03:52:12;;;;;;;15.65;4.80;;;;;;;2.17;91.94;99687.38;5001217;28;20027;-72
2024/03/01 03:54:38;;;;;;;3.78;3.15;;;;;;;2.13;93.31;99697.56;4986379;28;20019;-71
2024/03/01 03:57:03;;;;;;;3.35;2.25;;;;;;;2.07;93.26;99700.91;4986243;28;20224;-71
2024/03/01 03:59:28;;;;;;;7.75;4.88;;;;;;;2.24;92.95;99701.16;4984800;28;20033;-71
2024/03/01 04:01:54;;;;;;;12.88;5.07;;;;;;;2.44;91.91;99698.00;4986089;28;20026;-70
2024/03/01 04:04:19;;;;;;;10.63;4.63;;;;;;;2.53;91.15;99682.75;4985934;28;20023;-70
2024/03/01 04:06:44;;;;;;;11.15;5.28;;;;;;;2.37;92.04;99688.50;4985828;28;20164;-71
2024/03/01 04:09:10;;;;;;;8.48;4.60;;;;;;;2.45;91.80;99689.47;4984710;28;20027;-71
2024/03/01 04:11:36;;;;;;;5.00;3.20;;;;;;;2.35;92.70;99665.44;4985428;28;20027;-71
2024/03/01 04:14:02;;;;;;;2.10;1.33;;;;;;;2.50;92.18;99685.28;4986013;28;20029;-71
2024/03/01 04:16:28;;;;;;;8.02;7.30;;;;;;;2.46;91.91;99692.06;4986087;28;20027;-71
2024/03/01 04:18:54;;;;;;;3.58;3.22;;;;;;;2.30;92.47;99685.84;4985815;28;20026;-72
2024/03/01 04:21:19;;;;;;;5.43;5.00;;;;;;;2.41;92.71;99675.75;4968494;28;20046;-69
2024/03/01 04:23:44;;;;;;;13.48;8.10;;;;;;;2.56;91.86;99676.78;4985919;28;20432;-70
2024/03/01 04:26:10;;;;;;;10.40;5.70;;;;;;;2.51;92.53;99694.69;4985931;28;20022;-70
2024/03/01 04:28:39;;;;;;;4.50;3.47;;;;;;;2.45;93.37;99694.59;4986075;28;20023;-71
2024/03/01 04:31:04;;;;;;;3.15;2.90;;;;;;;2.46;93.35;99683.53;4985707;28;20447;-68
2024/03/01 04:33:31;;;;;;;3.55;2.85;;;;;;;2.31;93.56;99679.91;4985907;28;20019;-71
2024/03/01 04:35:57;;;;;;;14.35;5.93;;;;;;;2.57;92.36;99693.91;4985819;28;20035;-71
2024/03/01 04:38:22;;;;;;;5.35;4.80;;;;;;;2.36;93.51;99677.41;4985794;28;20023;-71
2024/03/01 04:40:47;;;;;;;7.55;5.68;;;;;;;2.55;92.81;99675.09;4985620;28;20034;-71
2024/03/01 04:43:13;;;;;;;8.70;4.53;;;;;;;2.53;93.35;99657.13;4985630;28;20039;-70
2024/03/01 04:45:38;;;;;;;2.25;1.98;;;;;;;2.54;92.85;99670.81;4985706;28;20037;-71
2024/03/01 04:48:04;;;;;;;3.63;3.15;;;;;;;2.66;92.21;99676.09;4985687;28;20038;-72
2024/03/01 04:50:29;;;;;;;5.63;4.88;;;;;;;2.71;92.62;99671.88;4984280;28;20423;-71
2024/03/01 04:52:55;;;;;;;12.20;5.40;;;;;;;2.76;92.20;99676.19;4985749;28;20027;-71
2024/03/01 04:55:20;;;;;;;9.65;5.07;;;;;;;2.67;92.68;99675.22;4985522;28;20030;-70
2024/03/01 04:57:45;;;;;;;9.95;3.55;;;;;;;2.70;92.50;99671.88;4985611;28;20027;-71
2024/03/01 05:00:12;;;;;;;3.72;3.40;;;;;;;2.79;92.15;99671.09;4985530;28;20487;-71
2024/03/01 05:02:43;;;;;;;12.88;7.05;;;;;;;2.63;93.01;99668.34;4985666;28;20031;-72
2024/03/01 05:05:14;;;;;;;9.57;5.63;;;;;;;2.85;91.80;99663.47;4985400;28;20035;-71
2024/03/01 05:07:39;;;;;;;11.45;6.82;;;;;;;2.85;91.92;99664.34;4985488;28;20074;-72
2024/03/01 05:10:08;;;;;;;4.85;4.50;;;;;;;2.79;92.42;99664.28;4985514;28;20030;-71
2024/03/01 05:12:41;;;;;;;7.25;4.60;;;;;;;2.89;91.92;99661.81;5000492;28;20076;-71
2024/03/01 05:15:07;;;;;;;18.35;6.40;;;;;;;2.96;91.63;99658.47;4985526;28;20027;-71
2024/03/01 05:17:34;;;;;;;9.57;6.43;;;;;;;2.83;93.00;99663.47;4985625;28;20073;-71
2024/03/01 05:20:00;;;;;;;3.28;3.00;;;;;;;3.07;91.73;99673.97;4983983;28;20089;-71
2024/03/01 05:22:25;;;;;;;3.72;3.40;;;;;;;2.85;92.77;99671.16;4970077;28;20023;-71
2024/03/01 05:24:51;;;;;;;2.33;2.13;;;;;;;3.10;92.01;99681.69;4989065;28;20057;-71
2024/03/01 05:27:16;;;;;;;10.15;4.95;;;;;;;3.09;92.30;99685.97;4971389;28;20026;-70
2024/03/01 05:29:42;;;;;;;11.45;7.47;;;;;;;3.28;91.97;99670.75;4989041;28;20027;-70
2024/03/01 05:32:08;;;;;;;6.82;2.53;;;;;;;3.06;92.49;99675.69;4988540;28;20029;-73
2024/03/01 05:34:33;;;;;;;12.82;4.88;;;;;;;3.13;92.29;99661.19;4988990;28;20022;-70
2024/03/01 05:36:58;;;;;;;8.52;4.45;;;;;;;3.20;92.47;99683.50;4989063;28;20023;-71
2024/03/01 05:39:24;;;;;;;7.32;5.68;;;;;;;3.26;92.43;99667.31;4987579;28;20030;-71
2024/03/01 05:41:49;;;;;;;6.90;5.00;;;;;;;3.20;92.80;99675.81;4987556;28;20026;-69
2024/03/01 05:44:16;;;;;;;11.20;6.38;;;;;;;3.42;91.45;99680.31;4988692;28;20045;-71
2024/03/01 05:46:42;;;;;;;3.30;2.75;;;;;;;3.37;91.34;99681.97;4988825;28;20054;-72
2024/03/01 05:49:12;;;;;;;17.38;3.92;;;;;;;3.42;91.81;99686.28;4988312;28;20030;-72
2024/03/01 05:51:39;;;;;;;11.57;4.80;;;;;;;3.35;92.67;99693.03;4988562;28;20031;-71
2024/03/01 05:54:04;;;;;;;7.43;3.80;;;;;;;3.52;91.15;99681.22;4987172;28;20125;-72
2024/03/01 05:56:30;;;;;;;2.47;2.28;;;;;;;3.53;91.73;99698.38;4988658;28;20026;-72
2024/03/01 05:58:56;;;;;;;7.57;4.68;;;;;;;3.54;91.05;99687.25;4970970;28;20423;-72
2024/03/01 06:01:23;;;;;;;4.47;4.00;;;;;;;3.38;92.77;99697.38;4988437;28;20027;-73
2024/03/01 06:03:48;;;;;;;5.82;4.40;;;;;;;3.53;92.03;99704.34;4988495;28;20102;-73
2024/03/01 06:06:18;;;;;;;34.17;6.80;;;;;;;3.83;90.40;99699.47;4988556;28;20073;-73
2024/03/01 06:08:47;;;;;;;6.50;3.55;;;;;;;3.87;90.01;99696.06;4988503;28;20034;-70
2024/03/01 06:11:13;;;;;;;9.48;3.75;;;;;;;3.78;90.34;99712.28;4988410;28;20022;-69
2024/03/01 06:13:39;;;;;;;4.78;3.47;;;;;;;3.89;89.83;99704.66;4971126;28;20100;-67
2024/03/01 06:16:08;;;;;;;3.80;3.42;;;;;;;3.81;90.63;99717.44;4988292;28;20093;-73
2024/03/01 06:18:34;;;;;;;5.60;3.00;;;;;;;3.87;91.05;99715.72;4988334;28;20023;-73
2024/03/01 06:20:59;;;;;;;4.40;4.00;;;;;;;3.78;90.78;99707.13;4988101;28;20033;-72
2024/03/01 06:23:28;;;;;;;5.00;3.30;;;;;;;4.06;89.21;99698.75;4988293;28;20106;-73
2024/03/01 06:25:54;;;;;;;8.10;4.28;;;;;;;4.12;88.75;99708.22;4986749;28;20030;-71
2024/03/01 06:28:19;;;;;;;4.85;3.65;;;;;;;4.14;89.02;99703.97;4988038;28;20033;-71
2024/03/01 06:30:44;;;;;;;4.80;4.20;;;;;;;4.02;89.91;99717.56;4970482;28;20023;-68
2024/03/01 06:33:13;;;;;;;7.57;6.75;;;;;;;3.95;90.56;99714.97;4987132;28;20031;-71
2024/03/01 06:35:38;;;;;;;23.40;4.95;;;;;;;4.07;90.26;99697.94;4987700;28;20023;-72
2024/03/01 06:38:06;;;;;;;3.88;2.75;;;;;;;4.07;89.98;99700.50;5002790;28;20030;-73
2024/03/01 06:40:34;;;;;;;11.35;7.03;;;;;;;4.15;89.43;99701.41;4970449;28;20023;-68
2024/03/01 06:42:59;;;;;;;20.63;7.32;;;;;;;4.19;89.50;99704.84;5011763;23;20608;-63
2024/03/01 06:45:24;;;;;;;5.38;4.97;;;;;;;4.32;88.65;99710.91;5078347;23;20056;-73
2024/03/01 06:47:50;;;;;;;7.45;6.20;;;;;;;4.24;89.13;99689.44;5048136;28;20377;-72
2024/03/01 06:50:15;;;;;;;3.17;2.38;;;;;;;4.32;88.65;99700.63;5065496;28;20044;-71
2024/03/01 06:52:40;;;;;;;5.45;4.80;;;;;;;4.26;89.78;99705.75;5065969;28;20029;-72
2024/03/01 06:55:07;;;;;;;11.93;6.50;;;;;;;4.37;89.33;99706.69;5048575;28;20021;-71
2024/03/01 06:57:33;;;;;;;8.15;5.78;;;;;;;4.30;89.53;99710.03;5048333;28;20055;-71
2024/03/01 06:59:58;;;;;;;5.63;4.93;;;;;;;4.33;88.81;99690.38;5066541;28;20025;-70
2024/03/01 07:02:24;;;;;;;9.23;5.80;;;;;;;4.50;87.73;99692.19;5065554;28;20028;-71
2024/03/01 07:04:49;;;;;;;6.00;3.08;;;;;;;4.52;87.46;99707.63;5066088;28;20089;-71
2024/03/01 07:07:16;;;;;;;6.97;4.70;;;;;;;4.67;86.36;99688.81;5048337;28;20500;-73
2024/03/01 07:09:42;;;;;;;7.03;4.28;;;;;;;4.62;86.07;99699.06;5066323;28;20108;-72
2024/03/01 07:12:07;;;;;;;6.93;5.38;;;;;;;4.59;86.36;99704.22;5066079;28;20021;-73
2024/03/01 07:14:33;;;;;;;8.80;4.38;;;;;;;4.57;86.49;99698.19;5065642;28;20052;-71
2024/03/01 07:16:58;;;;;;;6.18;4.20;;;;;;;4.47;87.02;99705.84;5067196;28;20089;-71
2024/03/01 07:19:23;;;;;;;3.45;3.15;;;;;;;4.42;87.83;99693.84;5067443;28;20116;-70
2024/03/01 07:21:49;;;;;;;14.50;5.38;;;;;;;4.51;87.46;99680.16;5049144;28;20025;-72
2024/03/01 07:24:14;;;;;;;2.55;2.35;;;;;;;4.64;86.81;99691.38;5049177;28;20040;-71
2024/03/01 07:26:40;;;;;;;4.35;3.92;;;;;;;4.59;87.13;99702.50;5072034;28;20040;-71
2024/03/01 07:29:05;;;;;;;2.60;2.50;;;;;;;4.58;87.78;99699.94;5072569;28;20021;-71
2024/03/01 07:31:30;;;;;;;4.45;3.75;;;;;;;4.55;88.05;99689.63;5067912;28;20051;-71
2024/03/01 07:33:56;;;;;;;5.03;3.78;;;;;;;4.62;87.71;99695.66;5053015;28;20016;-70
2024/03/01 07:36:21;;;;;;;5.95;4.78;;;;;;;4.52;88.88;99698.16;5052322;28;20052;-73
2024/03/01 07:38:47;;;;;;;3.35;2.83;;;;;;;4.65;87.93;99681.09;5066125;28;20027;-71
2024/03/01 07:41:13;;;;;;;4.68;4.05;;;;;;;4.75;87.75;99681.13;5047898;28;20061;-71
2024/03/01 07:43:38;;;;;;;16.17;3.60;;;;;;;4.71;88.70;99699.13;5047970;28;20029;-70
2024/03/01 07:46:04;;;;;;;6.53;5.10;;;;;;;4.69;88.99;99689.69;5065165;28;20088;-70
2024/03/01 07:48:32;;;;;;;4.75;3.63;;;;;;;5.07;86.34;99688.09;5065693;28;20025;-72
2024/03/01 07:50:57;;;;;;;6.22;5.55;;;;;;;5.03;86.27;99681.22;5047353;28;20029;-73
2024/03/01 07:53:23;;;;;;;3.30;2.85;;;;;;;4.92;87.49;99689.75;5065619;28;20036;-71
2024/03/01 07:55:48;;;;;;;6.45;5.53;;;;;;;4.98;87.50;99700.94;5065550;28;20021;-71
2024/03/01 07:58:14;;;;;;;4.80;4.03;;;;;;;4.93;88.18;99694.06;5065685;28;20031;-72
2024/03/01 08:00:39;;;;;;;1.38;1.35;;;;;;;5.16;87.08;99688.09;5065248;28;20025;-70
2024/03/01 08:03:09;;;;;;;6.43;4.72;;;;;;;4.98;88.14;99691.50;5065492;28;20027;-72
2024/03/01 08:05:36;;;;;;;2.75;1.13;;;;;;;5.08;87.93;99679.50;5068347;28;20059;-71
2024/03/01 08:08:02;;;;;;;5.22;4.00;;;;;;;4.90;89.21;99681.19;5073116;28;20028;-72
2024/03/01 08:10:33;;;;;;;7.15;4.28;;;;;;;5.01;88.75;99677.78;5056717;28;20024;-71
2024/03/01 08:12:58;;;;;;;10.07;5.10;;;;;;;4.92;89.41;99678.63;5055882;28;20025;-71
2024/03/01 08:15:30;;;;;;;2.78;1.73;;;;;;;5.23;88.49;99685.53;5073947;28;20025;-72
2024/03/01 08:17:56;;;;;;;6.53;3.17;;;;;;;5.32;87.39;99681.28;5057642;28;20016;-72
2024/03/01 08:20:52;;;;;;;4.90;3.20;;;;;;;5.21;88.14;99676.13;5073946;28;20033;-71
2024/03/01 08:23:17;;;;;;;1.55;1.45;;;;;;;5.11;89.53;99678.69;5075171;28;20048;-72
2024/03/01 08:25:43;;;;;;;2.53;2.30;;;;;;;5.15;89.03;99670.09;5075560;28;20021;-72
2024/03/01 08:28:09;;;;;;;2.50;1.83;;;;;;;5.29;88.90;99675.25;5075719;28;20029;-72
2024/03/01 08:30:46;;;;;;;6.95;5.50;;;;;;;5.27;88.93;99684.72;5070143;28;20085;-71
2024/03/01 08:33:19;;;;;;;5.20;2.25;;;;;;;5.35;89.09;99677.00;5055160;28;20013;-71
2024/03/01 08:35:46;;;;;;;7.65;4.97;;;;;;;5.30;89.35;99687.28;5072002;28;20440;-71
2024/03/01 08:38:43;;;;;;;12.10;5.15;;;;;;;5.38;89.51;99692.44;5055234;28;20047;-71
2024/03/01 08:41:10;;;;;;;10.77;3.38;;;;;;;5.32;90.03;99685.56;5054475;28;20051;-71
2024/03/01 08:43:36;;;;;;;7.85;5.95;;;;;;;5.65;88.74;99696.78;5055013;28;20021;-71
2024/03/01 08:46:03;;;;;;;3.40;2.17;;;;;;;5.74;87.59;99679.56;5072188;28;20109;-71
2024/03/01 08:48:33;;;;;;;4.28;2.05;;;;;;;5.56;88.65;99689.00;5050504;28;20031;-71
2024/03/01 08:51:00;;;;;;;3.83;2.67;;;;;;;5.63;88.98;99697.63;5046843;28;20033;-71
2024/03/01 08:53:56;;;;;;;6.07;3.78;;;;;;;5.79;88.45;99689.03;5064682;28;20025;-72
2024/03/01 08:56:23;;;;;;;3.75;2.78;;;;;;;5.76;88.83;99683.91;5065626;28;20477;-72
2024/03/01 08:58:49;;;;;;;6.45;3.65;;;;;;;5.96;87.44;99675.28;5050583;28;20392;-69
2024/03/01 09:01:36;;;;;;;5.10;4.35;;;;;;;5.98;87.90;99685.56;5068897;28;20013;-70
2024/03/01 09:04:13;;;;;;;15.93;4.82;;;;;;;5.76;89.17;99672.72;5069516;28;20025;-70
2024/03/01 09:06:39;;;;;;;9.00;4.28;;;;;;;6.16;87.22;99682.16;5072569;28;20032;-71
2024/03/01 09:09:05;;;;;;;4.75;3.63;;;;;;;6.22;86.59;99668.38;5068652;28;20029;-72
2024/03/01 09:11:32;;;;;;;9.55;3.70;;;;;;;6.02;87.62;99669.28;5068299;28;20354;-71
2024/03/01 09:13:58;;;;;;;2.67;2.47;;;;;;;6.20;87.06;99676.13;5051089;28;20033;-71
2024/03/01 09:16:24;;;;;;;4.07;3.22;;;;;;;6.19;87.10;99661.53;5068398;28;20377;-70
2024/03/01 09:18:50;;;;;;;4.43;3.53;;;;;;;6.13;87.33;99661.53;5050347;28;20021;-70
2024/03/01 09:21:21;;;;;;;7.78;2.92;;;;;;;6.24;87.54;99666.66;5072973;28;20028;-71
2024/03/01 09:23:50;;;;;;;9.98;4.05;;;;;;;6.22;87.30;99660.66;5068639;28;20029;-70
2024/03/01 09:26:15;;;;;;;7.10;5.35;;;;;;;6.47;86.25;99669.16;5050574;28;20025;-70
2024/03/01 09:28:41;;;;;;;13.15;2.92;;;;;;;6.44;86.55;99672.63;5050343;28;20029;-70
2024/03/01 09:31:08;;;;;;;7.97;3.90;;;;;;;6.40;87.27;99664.91;5067937;28;20024;-70
2024/03/01 09:33:33;;;;;;;12.30;6.57;;;;;;;6.56;86.55;99663.13;5050154;28;20171;-69
2024/03/01 09:35:59;;;;;;;10.40;5.55;;;;;;;6.43;87.73;99670.91;5071626;28;20581;-70
2024/03/01 09:38:25;;;;;;;6.22;5.63;;;;;;;6.49;87.95;99664.88;5068042;28;20108;-69
2024/03/01 09:40:50;;;;;;;5.10;3.30;;;;;;;6.57;87.20;99673.44;5067929;28;20029;-70
2024/03/01 09:43:47;;;;;;;3.53;3.15;;;;;;;6.57;87.23;99670.00;5067901;28;20020;-70
2024/03/01 09:46:45;;;;;;;3.67;2.50;;;;;;;6.78;86.20;99683.69;5067429;28;20077;-71
2024/03/01 09:49:13;;;;;;;18.90;6.55;;;;;;;6.82;85.22;99675.91;5005751;28;20119;-69
2024/03/01 09:51:45;;;;;;;20.13;10.30;;;;;;;6.71;85.16;99677.69;5005893;28;20515;-69
2024/03/01 09:54:36;;;;;;;8.60;4.78;;;;;;;6.77;85.71;99675.06;5006017;28;20507;-70
2024/03/01 09:57:23;;;;;;;8.30;3.58;;;;;;;6.74;85.98;99681.97;5005912;28;20033;-69
2024/03/01 10:00:10;;;;;;;5.20;4.13;;;;;;;6.74;85.69;99675.09;5005853;28;20038;-70
2024/03/01 10:03:06;;;;;;;8.15;5.47;;;;;;;6.80;85.23;99684.53;4989678;28;20038;-71
2024/03/01 10:06:19;;;;;;;8.45;4.30;;;;;;;6.64;86.27;99678.56;4989029;28;20034;-69
2024/03/01 10:08:44;;;;;;;11.57;5.78;;;;;;;6.66;86.43;99682.03;4947644;29;20023;-71
2024/03/01 10:11:17;;;;;;;12.88;4.05;;;;;;;6.63;86.40;99669.97;4947230;29;20039;-70
2024/03/01 10:13:54;;;;;;;13.63;6.40;;;;;;;6.65;86.74;99683.72;4947428;29;20515;-70
2024/03/01 10:16:41;;;;;;;7.65;6.90;;;;;;;6.67;86.89;99674.28;4947420;29;20091;-70
2024/03/01 10:19:24;;;;;;;7.90;5.63;;;;;;;6.71;87.40;99685.41;4947361;29;20032;-70
2024/03/01 10:21:56;;;;;;;6.00;1.98;;;;;;;6.98;84.99;99682.72;4947355;29;20038;-69
2024/03/01 10:24:45;;;;;;;13.18;5.72;;;;;;;6.76;86.72;99691.41;4959542;28;20052;-69
2024/03/01 10:27:32;;;;;;;21.25;10.40;;;;;;;6.90;86.42;99672.47;4969588;28;20039;-69
2024/03/01 10:30:20;;;;;;;18.63;8.88;;;;;;;6.83;86.86;99674.19;4985812;28;20435;-69
2024/03/01 10:33:16;;;;;;;8.98;5.10;;;;;;;6.96;86.23;99672.41;4985550;28;20094;-71
2024/03/01 10:35:58;;;;;;;8.43;6.10;;;;;;;7.08;85.19;99671.47;4969166;28;20138;-70
2024/03/01 10:38:38;;;;;;;5.95;4.90;;;;;;;7.04;85.17;99673.25;4985845;28;20026;-69
2024/03/01 10:41:12;;;;;;;15.43;5.32;;;;;;;6.97;86.63;99671.53;4985430;28;20034;-70
2024/03/01 10:43:54;;;;;;;13.20;4.15;;;;;;;7.31;84.76;99679.09;5062302;28;20105;-71
2024/03/01 10:46:25;;;;;;;12.05;5.53;;;;;;;7.24;84.19;99671.38;5066525;28;20405;-70
2024/03/01 10:49:20;;;;;;;10.20;3.55;;;;;;;7.32;84.02;99664.44;5066676;28;20029;-70
2024/03/01 10:51:58;;;;;;;5.63;2.35;;;;;;;7.23;84.65;99664.50;5004352;28;20068;-70
2024/03/01 10:54:29;;;;;;;7.47;5.32;;;;;;;7.36;83.94;99658.41;5004682;28;20030;-70
2024/03/01 10:56:57;;;;;;;18.02;9.13;;;;;;;7.31;84.97;99652.41;4988443;28;20042;-70
2024/03/01 10:59:43;;;;;;;4.88;4.50;;;;;;;7.49;84.10;99663.47;5004622;28;20498;-70
2024/03/01 11:02:20;;;;;;;6.30;5.22;;;;;;;7.43;86.22;99649.72;4988014;28;20544;-69
2024/03/01 11:04:55;;;;;;;8.88;5.72;;;;;;;7.81;84.63;99654.59;5004425;28;20034;-69
2024/03/01 11:07:33;;;;;;;18.00;9.30;;;;;;;7.98;84.57;99653.56;4988173;28;20125;-69
2024/03/01 11:10:24;;;;;;;15.70;8.38;;;;;;;8.13;82.31;99645.66;5004678;28;20038;-69
2024/03/01 11:13:04;;;;;;;11.85;7.50;;;;;;;8.04;81.33;99636.28;5004476;28;20041;-69
2024/03/01 11:15:31;;;;;;;6.95;3.65;;;;;;;8.10;80.52;99647.44;5004649;28;20121;-68
2024/03/01 11:18:01;;;;;;;11.95;6.15;;;;;;;7.96;81.21;99648.41;5004364;28;20030;-70
2024/03/01 11:20:36;;;;;;;7.93;5.22;;;;;;;7.99;80.58;99648.38;5003719;28;20069;-70
2024/03/01 11:23:13;;;;;;;8.43;4.18;;;;;;;7.97;80.26;99638.94;5004545;28;20042;-69
2024/03/01 11:25:58;;;;;;;7.50;6.13;;;;;;;7.78;82.29;99633.97;4988134;28;20030;-69
2024/03/01 11:28:25;;;;;;;8.88;5.53;;;;;;;7.79;82.12;99638.25;5028515;28;20037;-69
2024/03/01 11:31:21;;;;;;;11.52;4.57;;;;;;;7.83;83.07;99637.34;5047867;28;20424;-68
2024/03/01 11:33:48;;;;;;;5.95;4.35;;;;;;;7.98;80.92;99644.09;5064519;28;20033;-70
2024/03/01 11:36:46;;;;;;;4.65;3.50;;;;;;;7.84;81.66;99639.06;5065764;28;20096;-69
2024/03/01 11:39:53;;;;;;;12.82;6.82;;;;;;;7.67;82.61;99645.22;5044541;28;20033;-69
2024/03/01 11:42:25;;;;;;;8.98;5.93;;;;;;;7.79;82.57;99646.00;5065852;28;20123;-69
2024/03/01 11:45:10;;;;;;;9.57;5.45;;;;;;;7.86;82.31;99650.22;5047618;28;20099;-70
2024/03/01 11:47:47;;;;;;;3.67;3.13;;;;;;;7.88;82.06;99645.03;5065594;28;20469;-68